createdAt,value
2018-08-17T00:01:30.620Z,99585.25
2018-08-17T00:03:59.404Z,99586.31
2018-08-17T00:06:28.141Z,99588.02
2018-08-17T00:08:56.924Z,99588.59
2018-08-17T00:11:25.649Z,99585.93
2018-08-17T00:13:54.476Z,99579.67
2018-08-17T00:16:23.213Z,99579.44
2018-08-17T00:18:51.961Z,99585.43
2018-08-17T00:21:20.737Z,99594.42
2018-08-17T00:23:49.469Z,99595.52
2018-08-17T00:26:18.274Z,99591.16
2018-08-17T00:28:47.025Z,99594.95
2018-08-17T00:31:15.750Z,99594.42
2018-08-17T00:33:44.505Z,99590.95
2018-08-17T00:36:13.251Z,99595.27
2018-08-17T00:38:42.009Z,99596.67
2018-08-17T00:41:10.774Z,99598.55
2018-08-17T00:43:39.586Z,99595.83
2018-08-17T00:46:08.855Z,99602.09
2018-08-17T00:48:37.633Z,99603.17
2018-08-17T00:51:06.903Z,99605.64
2018-08-17T00:53:35.671Z,99606.72
2018-08-17T00:56:04.509Z,99611.67
2018-08-17T00:58:33.397Z,99611.70
2018-08-17T01:01:02.269Z,99604.66
2018-08-17T01:03:31.283Z,99611.15
2018-08-17T01:06:06.480Z,99610.86
2018-08-17T01:08:35.262Z,99609.79
2018-08-17T01:11:04.019Z,99607.89
2018-08-17T01:13:32.760Z,99609.78
2018-08-17T01:16:01.556Z,99607.92
2018-08-17T01:18:30.293Z,99598.70
2018-08-17T01:20:59.033Z,99600.05
2018-08-17T01:23:27.808Z,99601.63
2018-08-17T01:25:56.541Z,99603.00
2018-08-17T01:28:25.507Z,99593.48
2018-08-17T01:30:54.291Z,99598.41
2018-08-17T01:33:23.005Z,99599.80
2018-08-17T01:35:51.728Z,99604.39
2018-08-17T01:38:20.442Z,99598.39
2018-08-17T01:40:49.177Z,99600.84
2018-08-17T01:43:17.916Z,99597.34
2018-08-17T01:45:46.649Z,99595.75
2018-08-17T01:48:15.384Z,99597.09
2018-08-17T01:50:44.094Z,99597.64
2018-08-17T01:53:12.832Z,99598.73
2018-08-17T01:55:41.553Z,99596.84
2018-08-17T01:58:10.318Z,99604.45
2018-08-17T02:00:39.099Z,99600.13
2018-08-17T02:03:07.955Z,99611.27
2018-08-17T02:05:36.678Z,99604.17
2018-08-17T02:08:05.425Z,99609.59
2018-08-17T02:10:34.172Z,99601.75
2018-08-17T02:13:02.909Z,99599.62
2018-08-17T02:15:31.607Z,99600.72
2018-08-17T02:18:00.340Z,99609.92
2018-08-17T02:20:29.098Z,99608.03
2018-08-17T02:22:57.854Z,99607.50
2018-08-17T02:25:26.617Z,99606.39
2018-08-17T02:27:55.338Z,99609.39
2018-08-17T02:30:24.063Z,99609.11
2018-08-17T02:32:52.789Z,99608.55
2018-08-17T02:35:21.586Z,99609.91
2018-08-17T02:37:50.322Z,99611.84
2018-08-17T02:40:19.254Z,99612.11
2018-08-17T02:42:47.988Z,99607.78
2018-08-17T02:45:16.734Z,99611.83
2018-08-17T02:47:45.433Z,99617.80
2018-08-17T02:50:14.154Z,99614.83
2018-08-17T02:52:42.875Z,99619.98
2018-08-17T02:55:11.599Z,99619.68
2018-08-17T02:57:40.363Z,99623.22
2018-08-17T03:00:09.176Z,99628.10
2018-08-17T03:02:37.936Z,99625.38
2018-08-17T03:05:06.701Z,99630.81
2018-08-17T03:07:35.438Z,99622.66
2018-08-17T03:10:04.223Z,99627.30
2018-08-17T03:12:33.185Z,99633.01
2018-08-17T03:15:02.069Z,99634.89
2018-08-17T03:17:30.971Z,99629.18
2018-08-17T03:19:59.875Z,99635.41
2018-08-17T03:22:28.744Z,99633.27
2018-08-17T03:24:57.598Z,99630.27
2018-08-17T03:27:26.446Z,99642.47
2018-08-17T03:29:55.318Z,99635.16
2018-08-17T03:32:24.183Z,99640.29
2018-08-17T03:34:53.073Z,99643.28
2018-08-17T03:37:21.947Z,99646.53
2018-08-17T03:39:50.809Z,99644.11
2018-08-17T03:42:19.529Z,99646.27
2018-08-17T03:44:48.267Z,99650.61
2018-08-17T03:47:17.060Z,99662.57
2018-08-17T03:49:45.993Z,99657.16
2018-08-17T03:52:14.727Z,99657.44
2018-08-17T03:54:43.467Z,99659.88
2018-08-17T03:57:12.235Z,99659.88
2018-08-17T03:59:41.014Z,99669.12
2018-08-17T04:02:09.770Z,99666.66
2018-08-17T04:04:38.531Z,99665.52
2018-08-17T04:07:07.289Z,99669.28
2018-08-17T04:09:36.029Z,99667.03
2018-08-17T04:12:04.790Z,99669.90
2018-08-17T04:14:33.500Z,99670.50
2018-08-17T04:17:02.223Z,99667.44
2018-08-17T04:19:30.965Z,99669.02
2018-08-17T04:21:59.685Z,99668.94
2018-08-17T04:24:28.419Z,99658.42
2018-08-17T04:26:57.113Z,99662.44
2018-08-17T04:29:25.801Z,99659.17
2018-08-17T04:32:00.645Z,99664.72
2018-08-17T04:34:29.366Z,99670.75
2018-08-17T04:36:58.294Z,99673.77
2018-08-17T04:39:27.086Z,99674.48
2018-08-17T04:41:55.836Z,99675.68
2018-08-17T04:44:24.544Z,99676.97
2018-08-17T04:46:53.246Z,99675.41
2018-08-17T04:49:21.992Z,99676.48
2018-08-17T04:51:50.785Z,99683.63
2018-08-17T04:54:19.486Z,99682.81
2018-08-17T04:56:48.182Z,99684.63
2018-08-17T04:59:16.894Z,99684.01
2018-08-17T05:01:45.654Z,99680.33
2018-08-17T05:04:14.528Z,99679.57
2018-08-17T05:06:43.289Z,99682.85
2018-08-17T05:09:12.016Z,99689.78
2018-08-17T05:11:40.738Z,99695.94
2018-08-17T05:14:09.493Z,99693.05
2018-08-17T05:16:38.217Z,99692.05
2018-08-17T05:19:06.966Z,99699.10
2018-08-17T05:21:35.720Z,99695.27
2018-08-17T05:24:04.638Z,99695.06
2018-08-17T05:26:33.499Z,99692.03
2018-08-17T05:29:02.245Z,99696.45
2018-08-17T05:31:30.977Z,99700.95
2018-08-17T05:33:59.695Z,99695.13
2018-08-17T05:36:28.443Z,99693.08
2018-08-17T05:38:57.936Z,99697.41
2018-08-17T05:41:26.752Z,99697.16
2018-08-17T05:43:55.486Z,99696.32
2018-08-17T05:46:24.311Z,99695.00
2018-08-17T05:48:53.161Z,99702.75
2018-08-17T05:51:21.997Z,99706.00
2018-08-17T05:53:51.134Z,99701.77
2018-08-17T05:56:19.878Z,99699.17
2018-08-17T05:58:49.341Z,99694.20
2018-08-17T06:01:18.758Z,99700.19
2018-08-17T06:03:47.571Z,99704.13
2018-08-17T06:06:16.343Z,99704.75
2018-08-17T06:08:45.068Z,99685.16
2018-08-17T06:11:14.489Z,99688.73
2018-08-17T06:13:43.167Z,99677.91
2018-08-17T06:16:12.081Z,99681.12
2018-08-17T06:18:41.207Z,99676.27
2018-08-17T06:21:09.973Z,99684.34
2018-08-17T06:23:38.849Z,99682.89
2018-08-17T06:26:07.728Z,99679.13
2018-08-17T06:28:36.566Z,99682.94
2018-08-17T06:31:05.286Z,99687.15
2018-08-17T06:33:34.011Z,99688.14
2018-08-17T06:36:02.909Z,99684.95
2018-08-17T06:38:31.605Z,99683.77
2018-08-17T06:41:00.422Z,99684.71
2018-08-17T06:43:29.568Z,99684.46
2018-08-17T06:45:58.262Z,99690.36
2018-08-17T06:48:27.011Z,99689.49
2018-08-17T06:50:55.764Z,99690.55
2018-08-17T06:53:24.693Z,99684.27
2018-08-17T06:55:53.394Z,99689.63
2018-08-17T06:58:22.613Z,99686.72
2018-08-17T07:00:51.978Z,99688.70
2018-08-17T07:03:20.870Z,99689.02
2018-08-17T07:05:49.993Z,99683.09
2018-08-17T07:08:18.757Z,99689.53
2018-08-17T07:10:47.484Z,99691.40
2018-08-17T07:13:16.702Z,99691.08
2018-08-17T07:15:45.874Z,99696.13
2018-08-17T07:18:15.073Z,99695.11
2018-08-17T07:20:44.369Z,99693.10
2018-08-17T07:23:13.661Z,99700.23
2018-08-17T07:25:43.290Z,99698.92
2018-08-17T07:28:12.701Z,99701.10
2018-08-17T07:30:41.676Z,99702.88
2018-08-17T07:33:10.902Z,99700.92
2018-08-17T07:35:40.177Z,99701.47
2018-08-17T07:38:09.362Z,99697.23
2018-08-17T07:40:38.473Z,99700.54
2018-08-17T07:43:08.052Z,99703.95
2018-08-17T07:45:37.563Z,99707.09
2018-08-17T07:48:06.771Z,99710.34
2018-08-17T07:50:35.394Z,99706.70
2018-08-17T07:53:04.106Z,99706.84
2018-08-17T07:55:32.810Z,99708.98
2018-08-17T07:58:01.563Z,99715.97
2018-08-17T08:00:30.287Z,99713.78
2018-08-17T08:02:59.179Z,99707.64
2018-08-17T08:05:28.274Z,99706.34
2018-08-17T08:07:57.543Z,99704.69
2018-08-17T08:10:26.912Z,99704.70
2018-08-17T08:12:55.686Z,99701.16
2018-08-17T08:15:24.405Z,99698.83
2018-08-17T08:17:53.513Z,99691.31
2018-08-17T08:20:32.372Z,99692.73
2018-08-17T08:23:12.193Z,99685.10
2018-08-17T08:25:41.334Z,99687.31
2018-08-17T08:28:10.073Z,99680.95
2018-08-17T08:30:38.794Z,99680.47
2018-08-17T08:33:07.529Z,99681.08
2018-08-17T08:35:36.239Z,99682.20
2018-08-17T08:38:04.947Z,99676.81
2018-08-17T08:40:33.703Z,99677.32
2018-08-17T08:43:02.401Z,99676.53
2018-08-17T08:45:31.127Z,99671.20
2018-08-17T08:47:59.829Z,99663.14
2018-08-17T08:50:28.521Z,99660.30
2018-08-17T08:52:57.473Z,99656.25
2018-08-17T08:55:26.331Z,99656.02
2018-08-17T08:57:55.035Z,99660.61
2018-08-17T09:00:23.831Z,99656.05
2018-08-17T09:02:52.541Z,99655.06
2018-08-17T09:05:21.285Z,99654.64
2018-08-17T09:07:49.970Z,99654.78
2018-08-17T09:10:18.670Z,99665.84
2018-08-17T09:12:47.369Z,99663.91
2018-08-17T09:15:16.049Z,99654.94
2018-08-17T09:17:45.094Z,99653.02
2018-08-17T09:20:15.749Z,99657.97
2018-08-17T09:22:44.704Z,99660.39
2018-08-17T09:25:13.693Z,99659.19
2018-08-17T09:27:42.397Z,99653.44
2018-08-17T09:30:12.829Z,99645.65
2018-08-17T09:32:41.790Z,99643.30
2018-08-17T09:35:11.709Z,99637.11
2018-08-17T09:37:40.481Z,99637.41
2018-08-17T09:40:10.190Z,99632.03
2018-08-17T09:42:38.917Z,99635.92
2018-08-17T09:45:09.634Z,99631.06
2018-08-17T09:47:38.394Z,99623.39
2018-08-17T09:50:09.361Z,99625.71
2018-08-17T09:52:38.278Z,99617.64
2018-08-17T09:55:07.034Z,99619.70
2018-08-17T09:57:36.099Z,99614.95
2018-08-17T10:00:06.346Z,99613.24
2018-08-17T10:02:40.342Z,99611.16
2018-08-17T10:05:14.093Z,99611.38
2018-08-17T10:07:48.074Z,99607.77
2018-08-17T10:10:18.398Z,99613.20
2018-08-17T10:12:48.327Z,99607.09
2018-08-17T10:15:17.115Z,99605.77
2018-08-17T10:17:45.832Z,99608.74
2018-08-17T10:20:22.726Z,99608.53
2018-08-17T10:22:51.446Z,99608.08
2018-08-17T10:25:23.420Z,99609.22
2018-08-17T10:27:54.544Z,99612.60
2018-08-17T10:30:23.765Z,99612.55
2018-08-17T10:32:55.424Z,99605.25
2018-08-17T10:35:26.369Z,99613.69
2018-08-17T10:37:57.498Z,99614.59
2018-08-17T10:40:26.619Z,99614.79
2018-08-17T10:42:55.372Z,99605.86
2018-08-17T10:45:25.547Z,99612.93
2018-08-17T10:47:54.714Z,99602.70
2018-08-17T10:50:24.805Z,99598.50
2018-08-17T10:52:54.773Z,99598.22
2018-08-17T10:55:24.609Z,99600.73
2018-08-17T10:57:53.382Z,99597.80
2018-08-17T11:00:22.755Z,99599.25
2018-08-17T11:02:52.353Z,99589.37
2018-08-17T11:05:21.065Z,99593.89
2018-08-17T11:07:50.037Z,99590.55
2018-08-17T11:10:18.728Z,99594.52
2018-08-17T11:12:48.027Z,99585.62
2018-08-17T11:15:16.719Z,99583.52
2018-08-17T11:17:46.246Z,99583.66
2018-08-17T11:20:16.858Z,99583.59
2018-08-17T11:22:45.578Z,99574.20
2018-08-17T11:25:14.361Z,99578.36
2018-08-17T11:27:43.066Z,99575.27
2018-08-17T11:30:13.388Z,99580.44
2018-08-17T11:32:42.736Z,99583.73
2018-08-17T11:35:11.492Z,99573.83
2018-08-17T11:37:40.213Z,99569.22
2018-08-17T11:40:10.418Z,99547.47
2018-08-17T11:42:41.425Z,99559.19
2018-08-17T11:45:12.274Z,99559.37
2018-08-17T11:47:42.033Z,99566.80
2018-08-17T11:50:13.378Z,99554.79
2018-08-17T11:52:51.107Z,99544.98
2018-08-17T11:55:20.223Z,99549.34
2018-08-17T11:57:48.965Z,99554.00
2018-08-17T12:00:17.807Z,99540.83
2018-08-17T12:02:46.733Z,99534.39
2018-08-17T12:05:15.485Z,99536.00
2018-08-17T12:07:45.033Z,99534.69
2018-08-17T12:10:13.739Z,99527.36
2018-08-17T12:12:43.246Z,99534.41
2018-08-17T12:15:12.826Z,99524.52
2018-08-17T12:17:41.620Z,99523.57
2018-08-17T12:20:10.353Z,99527.16
2018-08-17T12:22:39.071Z,99521.04
2018-08-17T12:25:08.891Z,99511.39
2018-08-17T12:27:37.541Z,99507.94
2018-08-17T12:30:07.563Z,99505.83
2018-08-17T12:32:36.292Z,99500.11
2018-08-17T12:35:05.077Z,99491.39
2018-08-17T12:37:33.796Z,99490.78
2018-08-17T12:40:02.571Z,99490.58
2018-08-17T12:42:35.308Z,99489.61
2018-08-17T12:45:09.113Z,99489.86
2018-08-17T12:47:37.805Z,99478.36
2018-08-17T12:50:06.507Z,99478.32
2018-08-17T12:52:35.233Z,99466.94
2018-08-17T12:55:03.991Z,99474.00
2018-08-17T12:57:37.897Z,99464.12
2018-08-17T13:00:06.614Z,99461.81
2018-08-17T13:02:35.314Z,99466.33
2018-08-17T13:05:04.065Z,99458.38
2018-08-17T13:07:32.778Z,99468.07
2018-08-17T13:10:01.523Z,99471.25
2018-08-17T13:12:30.331Z,99466.19
2018-08-17T13:14:59.051Z,99462.38
2018-08-17T13:17:33.841Z,99464.54
2018-08-17T13:20:02.561Z,99462.17
2018-08-17T13:22:31.279Z,99460.80
2018-08-17T13:24:59.986Z,99454.51
2018-08-17T13:27:28.799Z,99450.20
2018-08-17T13:29:57.588Z,99452.69
2018-08-17T13:32:26.293Z,99447.13
2018-08-17T13:34:55.003Z,99451.63
2018-08-17T13:37:23.751Z,99449.16
2018-08-17T13:39:52.471Z,99458.50
2018-08-17T13:42:21.282Z,99449.97
2018-08-17T13:44:49.934Z,99446.81
2018-08-17T13:47:18.652Z,99438.75
2018-08-17T13:49:47.339Z,99439.67
2018-08-17T13:52:16.069Z,99430.53
2018-08-17T13:54:44.834Z,99438.22
2018-08-17T13:57:13.788Z,99440.72
2018-08-17T13:59:42.484Z,99438.16
2018-08-17T14:02:11.319Z,99436.42
2018-08-17T14:04:40.011Z,99429.45
2018-08-17T14:07:08.760Z,99424.67
2018-08-17T14:09:37.502Z,99425.03
2018-08-17T14:12:06.645Z,99419.56
2018-08-17T14:14:35.344Z,99415.55
2018-08-17T14:17:04.073Z,99410.26
2018-08-17T14:19:32.825Z,99407.38
2018-08-17T14:22:01.578Z,99405.48
2018-08-17T14:24:30.593Z,99398.05
2018-08-17T14:26:59.350Z,99396.56
2018-08-17T14:29:28.074Z,99403.96
2018-08-17T14:31:56.905Z,99398.80
2018-08-17T14:34:25.794Z,99402.23
2018-08-17T14:36:54.439Z,99405.63
2018-08-17T14:39:23.203Z,99399.45
2018-08-17T14:41:57.391Z,99403.27
2018-08-17T14:44:28.739Z,99410.75
2018-08-17T14:46:57.473Z,99407.88
2018-08-17T14:49:26.811Z,99413.95
2018-08-17T14:51:55.620Z,99419.16
2018-08-17T14:54:24.401Z,99432.62
2018-08-17T14:56:55.701Z,99448.66
2018-08-17T14:59:27.172Z,99485.39
2018-08-17T15:01:58.599Z,99566.07
2018-08-17T15:04:27.397Z,99559.27
2018-08-17T15:06:56.196Z,99580.55
2018-08-17T15:09:24.913Z,99629.79
2018-08-17T15:11:53.625Z,99632.47
2018-08-17T15:14:22.378Z,99605.92
2018-08-17T15:16:51.138Z,99649.19
2018-08-17T15:19:19.862Z,99671.75
2018-08-17T15:21:48.597Z,99649.09
2018-08-17T15:24:17.318Z,99669.00
2018-08-17T15:26:46.199Z,99712.78
2018-08-17T15:29:14.966Z,99721.83
2018-08-17T15:31:43.752Z,99707.93
2018-08-17T15:34:12.613Z,99697.25
2018-08-17T15:36:41.378Z,99681.34
2018-08-17T15:39:10.227Z,99673.53
2018-08-17T15:41:46.490Z,99678.19
2018-08-17T15:44:23.136Z,99663.80
2018-08-17T15:46:51.941Z,99651.80
2018-08-17T15:49:30.663Z,99642.54
2018-08-17T15:52:00.243Z,99638.44
2018-08-17T15:54:29.142Z,99656.33
2018-08-17T15:56:58.082Z,99673.70
2018-08-17T15:59:26.826Z,99651.11
2018-08-17T16:01:55.617Z,99628.78
2018-08-17T16:04:24.469Z,99625.73
2018-08-17T16:06:53.212Z,99593.83
2018-08-17T16:09:22.166Z,99588.38
2018-08-17T16:11:50.910Z,99585.06
2018-08-17T16:14:19.676Z,99584.44
2018-08-17T16:16:48.409Z,99574.31
2018-08-17T16:19:17.157Z,99579.50
2018-08-17T16:21:45.933Z,99595.34
2018-08-17T16:24:14.806Z,99601.41
2018-08-17T16:26:43.623Z,99577.75
2018-08-17T16:29:12.367Z,99578.77
2018-08-17T16:31:42.265Z,99591.72
2018-08-17T16:34:11.258Z,99586.82
2018-08-17T16:36:42.096Z,99589.80
2018-08-17T16:39:14.597Z,99597.72
2018-08-17T16:41:43.457Z,99602.97
2018-08-17T16:44:12.578Z,99602.70
2018-08-17T16:46:42.347Z,99597.59
2018-08-17T16:49:11.150Z,99611.22
2018-08-17T16:51:40.118Z,99621.86
2018-08-17T16:54:08.888Z,99616.19
2018-08-17T16:56:37.882Z,99611.89
2018-08-17T16:59:06.889Z,99610.20
2018-08-17T17:01:35.581Z,99609.20
2018-08-17T17:04:04.699Z,99628.09
2018-08-17T17:06:33.505Z,99621.61
2018-08-17T17:09:06.319Z,99622.48
2018-08-17T17:11:35.316Z,99627.05
2018-08-17T17:14:04.124Z,99629.98
2018-08-17T17:16:50.087Z,99626.13
2018-08-17T17:19:22.575Z,99622.52
2018-08-17T17:21:52.143Z,99627.97
2018-08-17T17:24:23.286Z,99630.66
2018-08-17T17:26:53.162Z,99633.13
2018-08-17T17:29:22.128Z,99645.63
2018-08-17T17:31:51.765Z,99660.73
2018-08-17T17:34:20.513Z,99678.96
2018-08-17T17:36:49.291Z,99693.84
2018-08-17T17:39:18.058Z,99687.09
2018-08-17T17:41:46.818Z,99715.67
2018-08-17T17:44:15.562Z,99705.66
2018-08-17T17:46:44.271Z,99693.69
2018-08-17T17:49:13.024Z,99701.95
2018-08-17T17:51:41.753Z,99709.95
2018-08-17T17:54:10.645Z,99703.68
2018-08-17T17:56:39.449Z,99718.94
2018-08-17T17:59:14.853Z,99719.73
2018-08-17T18:01:43.645Z,99717.29
2018-08-17T18:04:12.356Z,99716.72
2018-08-17T18:06:41.080Z,99728.95
2018-08-17T18:09:09.878Z,99735.96
2018-08-17T18:11:38.754Z,99744.30
2018-08-17T18:14:07.837Z,99745.15
2018-08-17T18:16:37.820Z,99743.35
2018-08-17T18:19:06.634Z,99753.69
2018-08-17T18:21:35.414Z,99757.41
2018-08-17T18:24:09.197Z,99760.91
2018-08-17T18:26:38.081Z,99754.59
2018-08-17T18:29:07.268Z,99744.89
2018-08-17T18:31:36.066Z,99731.88
2018-08-17T18:34:04.826Z,99716.09
2018-08-17T18:36:33.565Z,99715.50
2018-08-17T18:39:02.613Z,99713.39
2018-08-17T18:41:31.453Z,99711.16
2018-08-17T18:44:00.228Z,99707.30
2018-08-17T18:46:29.047Z,99711.87
2018-08-17T18:48:57.785Z,99714.34
2018-08-17T18:51:26.557Z,99716.25
2018-08-17T18:53:55.332Z,99728.55
2018-08-17T18:56:24.155Z,99716.98
2018-08-17T18:58:52.952Z,99715.88
2018-08-17T19:01:21.804Z,99709.57
2018-08-17T19:03:50.560Z,99716.90
2018-08-17T19:06:19.349Z,99717.19
2018-08-17T19:08:48.109Z,99718.61
2018-08-17T19:11:16.890Z,99707.74
2018-08-17T19:13:45.681Z,99717.01
2018-08-17T19:16:14.525Z,99717.27
2018-08-17T19:18:43.313Z,99716.20
2018-08-17T19:21:13.717Z,99718.92
2018-08-17T19:23:42.584Z,99706.22
2018-08-17T19:26:11.997Z,99660.41
2018-08-17T19:28:40.825Z,99693.20
2018-08-17T19:31:09.638Z,99700.60
2018-08-17T19:33:38.431Z,99707.88
2018-08-17T19:36:07.368Z,99703.50
2018-08-17T19:38:38.817Z,99702.73
2018-08-17T19:41:07.627Z,99698.86
2018-08-17T19:43:36.439Z,99697.23
2018-08-17T19:46:05.559Z,99701.82
2018-08-17T19:48:34.551Z,99700.20
2018-08-17T19:51:07.476Z,99699.86
2018-08-17T19:53:36.473Z,99707.77
2018-08-17T19:56:05.373Z,99708.31
2018-08-17T19:58:34.241Z,99708.36
2018-08-17T20:01:03.138Z,99709.25
2018-08-17T20:03:31.961Z,99708.12
2018-08-17T20:06:00.914Z,99709.67
2018-08-17T20:08:29.745Z,99710.20
2018-08-17T20:10:58.637Z,99714.94
2018-08-17T20:13:27.382Z,99724.38
2018-08-17T20:15:56.153Z,99721.09
2018-08-17T20:18:24.870Z,99720.62
2018-08-17T20:20:53.618Z,99731.72
2018-08-17T20:23:22.406Z,99731.53
2018-08-17T20:25:51.266Z,99738.64
2018-08-17T20:28:19.981Z,99748.20
2018-08-17T20:30:48.713Z,99744.73
2018-08-17T20:33:21.536Z,99747.48
2018-08-17T20:35:50.883Z,99750.48
2018-08-17T20:38:19.621Z,99749.91
2018-08-17T20:40:48.399Z,99746.08
2018-08-17T20:43:17.140Z,99749.10
2018-08-17T20:45:45.856Z,99750.25
2018-08-17T20:48:14.557Z,99748.86
2018-08-17T20:50:43.258Z,99748.86
2018-08-17T20:53:11.990Z,99754.73
2018-08-17T20:55:40.736Z,99750.89
2018-08-17T20:58:09.576Z,99755.58
2018-08-17T21:00:38.419Z,99750.70
2018-08-17T21:03:07.354Z,99751.26
2018-08-17T21:05:36.220Z,99752.91
2018-08-17T21:08:04.934Z,99755.08
2018-08-17T21:10:33.629Z,99753.41
2018-08-17T21:13:02.342Z,99767.78
2018-08-17T21:15:31.120Z,99769.77
2018-08-17T21:17:59.816Z,99782.05
2018-08-17T21:20:28.519Z,99774.98
2018-08-17T21:22:57.237Z,99779.63
2018-08-17T21:25:25.950Z,99785.91
2018-08-17T21:27:54.701Z,99776.66
2018-08-17T21:30:23.623Z,99779.34
2018-08-17T21:32:52.361Z,99768.72
2018-08-17T21:35:21.069Z,99757.08
2018-08-17T21:37:49.838Z,99760.31
2018-08-17T21:40:28.295Z,99767.93
2018-08-17T21:42:58.198Z,99781.56
2018-08-17T21:45:27.028Z,99789.99
2018-08-17T21:47:55.800Z,99790.50
2018-08-17T21:50:24.529Z,99794.00
2018-08-17T21:52:53.273Z,99794.31
2018-08-17T21:55:22.112Z,99800.05
2018-08-17T21:57:50.817Z,99794.30
2018-08-17T22:00:26.193Z,99785.35
2018-08-17T22:02:54.906Z,99782.65
2018-08-17T22:05:33.021Z,99781.02
2018-08-17T22:08:01.811Z,99778.56
2018-08-17T22:10:31.016Z,99779.90
2018-08-17T22:12:59.710Z,99783.98
2018-08-17T22:15:30.017Z,99792.15
2018-08-17T22:17:58.754Z,99803.87
2018-08-17T22:20:27.441Z,99806.28
2018-08-17T22:22:56.209Z,99821.52
2018-08-17T22:25:24.909Z,99812.02
2018-08-17T22:27:53.608Z,99806.29
2018-08-17T22:30:25.946Z,99810.39
2018-08-17T22:32:54.637Z,99811.16
2018-08-17T22:35:23.465Z,99816.63
2018-08-17T22:37:52.198Z,99807.91
2018-08-17T22:40:20.997Z,99804.37
2018-08-17T22:42:50.711Z,99791.60
2018-08-17T22:45:19.435Z,99790.26
2018-08-17T22:47:48.158Z,99781.81
2018-08-17T22:50:16.951Z,99777.20
2018-08-17T22:52:45.667Z,99769.08
2018-08-17T22:55:14.414Z,99774.78
2018-08-17T22:57:43.108Z,99776.67
2018-08-17T23:00:20.059Z,99767.98
2018-08-17T23:02:50.001Z,99773.14
2018-08-17T23:05:21.980Z,99732.39
2018-08-17T23:07:50.772Z,99771.78
2018-08-17T23:10:22.616Z,99785.64
2018-08-17T23:12:52.312Z,99791.35
2018-08-17T23:15:21.010Z,99788.11
2018-08-17T23:17:51.309Z,99790.25
2018-08-17T23:20:25.146Z,99789.46
2018-08-17T23:22:56.017Z,99785.12
2018-08-17T23:25:24.708Z,99790.27
2018-08-17T23:27:53.660Z,99792.98
2018-08-17T23:30:22.392Z,99787.27
2018-08-17T23:32:51.187Z,99775.06
2018-08-17T23:35:19.972Z,99776.96
2018-08-17T23:37:48.835Z,99764.73
2018-08-17T23:40:17.581Z,99770.44
2018-08-17T23:42:46.433Z,99772.87
2018-08-17T23:45:16.409Z,99767.43
2018-08-17T23:47:45.169Z,99752.48
2018-08-17T23:50:14.964Z,99756.55
2018-08-17T23:52:44.302Z,99758.20
2018-08-17T23:55:15.861Z,99762.56
2018-08-17T23:57:44.552Z,99756.32
